Latest Weather Observations for Busselton Jetty

IDW60801

Issued at 1:32 am WST Thursday 28 May 2015 (issued every 30 minutes, with the page automatically refreshed every 10 minutes)

About weather observations | Map of weather stations | Latest weather observations for WA | Other Formats
Station Details ID: 009937 Name: BUSSELTON JETTY Lat: -33.63 Lon: 115.34 Height: 3.0 m
Data from the previous 72 hours. | See also: Recent months for locations in Western Australia
Date/Time
WST
Temp
°C
App
Temp
°C
Dew
Point
Rel
Hum
%
Delta-T
°C
Wind Press
QNH
hPa
Press
MSL
hPa
Rain
since 9 am
mm
Dir
 
Spd
km/h
Gust
km/h
Spd
kts
Gust
kts
28/01:30am - - - - - SE 11 13 6 7 - - -
28/01:00am - - - - - SE 13 13 7 7 - - -
28/12:30am - - - - - SSE 13 15 7 8 - - -
28/12:00am - - - - - SSE 17 20 9 11 - - -
 
Date/Time
WST
Temp
°C
App
Temp
°C
Dew
Point
Rel
Hum
%
Delta-T
°C
Wind Press
QNH
hPa
Press
MSL
hPa
Rain
since 9 am
mm
Dir
 
Spd
km/h
Gust
km/h
Spd
kts
Gust
kts
27/11:30pm - - - - - SSE 19 22 10 12 - - -
27/11:00pm - - - - - SSE 20 24 11 13 - - -
27/10:30pm - - - - - S 19 22 10 12 - - -
27/10:00pm - - - - - SSW 17 19 9 10 - - -
27/09:30pm - - - - - S 15 19 8 10 - - -
27/09:00pm - - - - - S 19 22 10 12 - - -
27/08:30pm - - - - - SSW 17 26 9 14 - - -
27/08:00pm - - - - - S 15 19 8 10 - - -
27/07:30pm - - - - - S 17 19 9 10 - - -
27/07:00pm - - - - - SSW 15 19 8 10 - - -
27/06:37pm - - - - - SW 17 33 9 18 - - -
27/06:30pm - - - - - WSW 11 15 6 8 - - -
27/06:00pm - - - - - WSW 13 15 7 8 - - -
27/05:30pm - - - - - WSW 13 17 7 9 - - -
27/05:00pm - - - - - WSW 24 30 13 16 - - -
27/04:30pm - - - - - WSW 13 17 7 9 - - -
27/04:00pm - - - - - W 20 26 11 14 - - -
27/03:30pm - - - - - W 30 37 16 20 - - -
27/03:00pm - - - - - WSW 20 26 11 14 - - -
27/02:30pm - - - - - WSW 20 30 11 16 - - -
27/02:00pm - - - - - WSW 19 26 10 14 - - -
27/01:30pm - - - - - WSW 26 30 14 16 - - -
27/01:00pm - - - - - W 17 22 9 12 - - -
27/12:30pm - - - - - W 24 30 13 16 - - -
27/12:00pm - - - - - W 20 32 11 17 - - -
27/11:30am - - - - - W 17 22 9 12 - - -
27/11:00am - - - - - W 7 11 4 6 - - -
27/10:30am - - - - - WNW 7 7 4 4 - - -
27/10:00am - - - - - SW 4 7 2 4 - - -
27/09:30am - - - - - WSW 9 13 5 7 - - -
27/09:00am - - - - - CALM 0 0 0 0 - - -
27/08:30am - - - - - CALM 0 4 0 2 - - -
27/08:00am - - - - - SSW 9 13 5 7 - - -
27/07:30am - - - - - S 11 13 6 7 - - -
27/07:00am - - - - - SW 9 11 5 6 - - -
27/06:30am - - - - - S 13 13 7 7 - - -
27/06:00am - - - - - SSE 11 15 6 8 - - -
27/05:30am - - - - - SSE 7 9 4 5 - - -
27/05:00am - - - - - S 9 13 5 7 - - -
27/04:30am - - - - - S 9 11 5 6 - - -
27/04:00am - - - - - SSE 9 11 5 6 - - -
27/03:30am - - - - - ESE 7 9 4 5 - - -
27/03:00am - - - - - SE 9 13 5 7 - - -
27/02:30am - - - - - SE 11 11 6 6 - - -
27/02:00am - - - - - SE 11 13 6 7 - - -
27/01:30am - - - - - SE 11 11 6 6 - - -
27/01:00am - - - - - ESE 11 13 6 7 - - -
27/12:30am - - - - - ESE 13 15 7 8 - - -
27/12:00am - - - - - SE 9 11 5 6 - - -
 
Date/Time
WST
Temp
°C
App
Temp
°C
Dew
Point
Rel
Hum
%
Delta-T
°C
Wind Press
QNH
hPa
Press
MSL
hPa
Rain
since 9 am
mm
Dir
 
Spd
km/h
Gust
km/h
Spd
kts
Gust
kts
26/11:30pm - - - - - SSE 9 13 5 7 - - -
26/11:00pm - - - - - SSE 13 15 7 8 - - -
26/10:30pm - - - - - SSE 11 13 6 7 - - -
26/10:00pm - - - - - SSW 9 13 5 7 - - -
26/09:30pm - - - - - S 11 13 6 7 - - -
26/09:00pm - - - - - S 11 13 6 7 - - -
26/08:30pm - - - - - SSE 13 15 7 8 - - -
26/08:00pm - - - - - SSE 15 17 8 9 - - -
26/07:30pm - - - - - SSE 15 17 8 9 - - -
26/07:00pm - - - - - SSE 15 17 8 9 - - -
26/06:30pm - - - - - S 17 20 9 11 - - -
26/06:00pm - - - - - S 24 30 13 16 - - -
26/05:30pm - - - - - S 24 30 13 16 - - -
26/05:00pm - - - - - SSW 20 26 11 14 - - -
26/04:30pm - - - - - S 17 20 9 11 - - -
26/04:00pm - - - - - S 20 28 11 15 - - -
26/03:30pm - - - - - SSW 28 33 15 18 - - -
26/03:00pm - - - - - S 26 32 14 17 - - -
26/02:30pm - - - - - SSW 30 37 16 20 - - -
26/02:00pm - - - - - SW 28 32 15 17 - - -
26/01:30pm - - - - - S 17 26 9 14 - - -
26/01:00pm - - - - - SSW 22 26 12 14 - - -
26/12:30pm - - - - - SSW 26 32 14 17 - - -
26/12:00pm - - - - - SSW 20 26 11 14 - - -
26/11:30am - - - - - WNW 17 22 9 12 - - -
26/11:00am - - - - - NNW 9 13 5 7 - - -
26/10:30am - - - - - WNW 7 9 4 5 - - -
26/10:00am - - - - - WNW 7 9 4 5 - - -
26/09:30am - - - - - S 6 7 3 4 - - -
26/09:00am - - - - - SW 9 13 5 7 - - -
26/08:30am - - - - - SSW 9 11 5 6 - - -
26/08:00am - - - - - SSW 13 15 7 8 - - -
26/07:30am - - - - - S 9 13 5 7 - - -
26/07:00am - - - - - S 2 7 1 4 - - -
26/06:30am - - - - - E 6 7 3 4 - - -
26/06:00am - - - - - ESE 2 7 1 4 - - -
26/05:30am - - - - - CALM 0 6 0 3 - - -
26/05:00am - - - - - SSE 7 9 4 5 - - -
26/04:30am - - - - - SSW 13 17 7 9 - - -
26/04:00am - - - - - SSE 9 11 5 6 - - -
26/03:30am - - - - - S 17 17 9 9 - - -
26/03:00am - - - - - SSE 9 19 5 10 - - -
26/02:30am - - - - - SE 9 11 5 6 - - -
26/02:00am - - - - - SE 7 9 4 5 - - -
26/01:30am - - - - - SE 9 11 5 6 - - -
26/01:00am - - - - - SE 7 9 4 5 - - -
26/12:30am - - - - - ESE 7 9 4 5 - - -
26/12:00am - - - - - SE 9 9 5 5 - - -
 
Date/Time
WST
Temp
°C
App
Temp
°C
Dew
Point
Rel
Hum
%
Delta-T
°C
Wind Press
QNH
hPa
Press
MSL
hPa
Rain
since 9 am
mm
Dir
 
Spd
km/h
Gust
km/h
Spd
kts
Gust
kts
25/11:30pm - - - - - SE 9 9 5 5 - - -
25/11:00pm - - - - - ESE 7 9 4 5 - - -
25/10:30pm - - - - - SE 7 9 4 5 - - -
25/10:00pm - - - - - SSE 9 11 5 6 - - -
25/09:30pm - - - - - S 9 9 5 5 - - -
25/09:00pm - - - - - S 6 7 3 4 - - -
25/08:30pm - - - - - SSE 7 7 4 4 - - -
25/08:00pm - - - - - SSW 7 9 4 5 - - -
25/07:30pm - - - - - SW 7 9 4 5 - - -
25/07:00pm - - - - - WSW 7 9 4 5 - - -
25/06:30pm - - - - - W 7 9 4 5 - - -
25/06:00pm - - - - - W 11 13 6 7 - - -
25/05:30pm - - - - - W 13 17 7 9 - - -
25/05:00pm - - - - - WNW 26 32 14 17 - - -
25/04:30pm - - - - - W 15 17 8 9 - - -
25/04:00pm - - - - - W 33 41 18 22 - - -
25/03:34pm - - - - - NNW 17 32 9 17 - - -
25/03:30pm - - - - - N 11 13 6 7 - - -
25/03:00pm - - - - - N 11 13 6 7 - - -
25/02:30pm - - - - - N 7 9 4 5 - - -
25/02:00pm - - - - - NNW 26 33 14 18 - - -
25/01:30pm - - - - - N 13 17 7 9 - - -
25/01:00pm - - - - - N 9 13 5 7 - - -
25/12:30pm - - - - - NNW 9 9 5 5 - - -
25/12:00pm - - - - - WNW 9 13 5 7 - - -
25/11:30am - - - - - NNE 15 20 8 11 - - -
25/11:00am - - - - - NE 19 22 10 12 - - -
25/10:30am - - - - - ENE 17 19 9 10 - - -
25/10:00am - - - - - ENE 17 19 9 10 - - -
25/09:30am - - - - - E 13 15 7 8 - - -
25/09:00am - - - - - ESE 13 15 7 8 - - -
25/08:30am - - - - - ESE 13 17 7 9 - - -
25/08:00am - - - - - ESE 13 15 7 8 - - -
25/07:30am - - - - - SSE 15 17 8 9 - - -
25/07:00am - - - - - SSE 13 19 7 10 - - -
25/06:30am - - - - - E 15 17 8 9 - - -
25/06:00am - - - - - E 13 15 7 8 - - -
25/05:30am - - - - - ESE 17 19 9 10 - - -
25/05:00am - - - - - ESE 17 19 9 10 - - -
25/04:30am - - - - - E 17 19 9 10 - - -
25/04:00am - - - - - ESE 15 17 8 9 - - -
25/03:30am - - - - - SE 17 17 9 9 - - -
25/03:00am - - - - - S 13 15 7 8 - - -
25/02:30am - - - - - SSE 11 13 6 7 - - -
25/02:00am - - - - - ESE 11 15 6 8 - - -

Other Formats:

Comma delimited format used in spreadsheet applications
http://www.bom.gov.au/fwo/IDW60801/IDW60801.95602.axf

JavaScript Object Notation format (JSON) in row-major order
http://www.bom.gov.au/fwo/IDW60801/IDW60801.95602.json